createdAt,value
2019-03-23T00:02:13.591Z,10.33
2019-03-23T00:04:45.186Z,9.20
2019-03-23T00:07:16.327Z,8.93
2019-03-23T00:09:47.455Z,10.75
2019-03-23T00:12:18.574Z,9.23
2019-03-23T00:14:49.143Z,9.93
2019-03-23T00:17:20.350Z,9.18
2019-03-23T00:19:51.479Z,9.30
2019-03-23T00:22:22.692Z,8.88
2019-03-23T00:24:53.835Z,10.48
2019-03-23T00:27:24.499Z,9.27
2019-03-23T00:29:55.700Z,11.70
2019-03-23T00:32:26.960Z,12.18
2019-03-23T00:34:58.099Z,10.80
2019-03-23T00:37:29.379Z,9.38
2019-03-23T00:40:01.647Z,10.28
2019-03-23T00:42:32.854Z,10.68
2019-03-23T00:45:03.885Z,10.57
2019-03-23T00:47:35.346Z,10.00
2019-03-23T00:50:07.015Z,8.53
2019-03-23T00:52:38.268Z,9.40
2019-03-23T00:55:12.294Z,10.40
2019-03-23T00:57:49.507Z,8.37
2019-03-23T01:00:20.331Z,11.67
2019-03-23T01:02:50.907Z,6.33
2019-03-23T01:05:22.141Z,7.05
2019-03-23T01:07:53.264Z,10.03
2019-03-23T01:10:23.863Z,6.17
2019-03-23T01:12:54.997Z,7.28
2019-03-23T01:15:26.129Z,8.28
2019-03-23T01:17:57.355Z,9.00
2019-03-23T01:20:30.334Z,7.20
2019-03-23T01:23:01.534Z,6.62
2019-03-23T01:25:32.652Z,7.80
2019-03-23T01:28:03.864Z,7.12
2019-03-23T01:30:35.263Z,6.60
2019-03-23T01:33:06.405Z,6.95
2019-03-23T01:35:37.741Z,6.45
2019-03-23T01:38:08.950Z,10.08
2019-03-23T01:40:39.601Z,6.13
2019-03-23T01:43:11.207Z,6.62
2019-03-23T01:45:42.043Z,5.17
2019-03-23T01:48:13.403Z,6.28
2019-03-23T01:50:44.843Z,8.98
2019-03-23T01:53:16.279Z,6.55
2019-03-23T01:55:47.848Z,5.83
2019-03-23T01:58:18.745Z,5.23
2019-03-23T02:00:50.080Z,7.03
2019-03-23T02:03:21.558Z,6.58
2019-03-23T02:05:52.387Z,8.00
2019-03-23T02:08:23.864Z,7.70
2019-03-23T02:10:55.192Z,6.62
2019-03-23T02:13:26.659Z,8.35
2019-03-23T02:15:57.512Z,9.20
2019-03-23T02:18:29.028Z,6.53
2019-03-23T02:21:01.543Z,8.15
2019-03-23T02:23:32.367Z,8.60
2019-03-23T02:26:04.381Z,7.70
2019-03-23T02:28:35.810Z,8.45
2019-03-23T02:31:07.445Z,7.03
2019-03-23T02:33:39.128Z,6.60
2019-03-23T02:36:09.860Z,6.00
2019-03-23T02:38:40.696Z,8.50
2019-03-23T02:41:11.638Z,8.67
2019-03-23T02:43:42.360Z,7.33
2019-03-23T02:46:13.687Z,7.45
2019-03-23T02:48:44.424Z,6.00
2019-03-23T02:51:15.164Z,8.03
2019-03-23T02:53:46.061Z,6.60
2019-03-23T02:56:17.487Z,7.40
2019-03-23T02:58:49.915Z,8.33
2019-03-23T03:01:21.294Z,6.78
2019-03-23T03:03:52.635Z,6.37
2019-03-23T03:06:24.157Z,6.65
2019-03-23T03:08:54.904Z,7.03
2019-03-23T03:11:26.464Z,7.42
2019-03-23T03:13:57.199Z,8.07
2019-03-23T03:16:28.051Z,7.93
2019-03-23T03:18:58.775Z,6.30
2019-03-23T03:21:30.139Z,6.28
2019-03-23T03:24:01.557Z,6.37
2019-03-23T03:26:32.316Z,5.93
2019-03-23T03:29:03.045Z,6.80
2019-03-23T03:31:33.948Z,6.50
2019-03-23T03:34:04.803Z,10.17
2019-03-23T03:36:35.538Z,6.20
2019-03-23T03:39:07.925Z,6.60
2019-03-23T03:41:39.068Z,5.00
2019-03-23T03:44:09.918Z,7.30
2019-03-23T03:46:40.729Z,7.63
2019-03-23T03:49:12.963Z,8.33
2019-03-23T03:51:43.886Z,7.40
2019-03-23T03:54:14.798Z,7.90
2019-03-23T03:56:45.757Z,8.27
2019-03-23T03:59:16.666Z,7.93
2019-03-23T04:01:47.498Z,7.90
2019-03-23T04:04:18.543Z,8.17
2019-03-23T04:06:49.452Z,7.73
2019-03-23T04:09:40.468Z,7.87
2019-03-23T04:12:11.430Z,6.80
2019-03-23T04:14:42.232Z,6.73
2019-03-23T04:17:13.050Z,6.73
2019-03-23T04:19:43.880Z,6.03
2019-03-23T04:22:14.706Z,7.17
2019-03-23T04:24:45.591Z,7.27
2019-03-23T04:27:16.463Z,7.43
2019-03-23T04:29:47.280Z,8.93
2019-03-23T04:32:18.175Z,8.33
2019-03-23T04:34:48.970Z,8.87
2019-03-23T04:37:19.796Z,10.33
2019-03-23T04:39:50.530Z,8.17
2019-03-23T04:42:21.346Z,9.13
2019-03-23T04:44:52.237Z,7.80
2019-03-23T04:47:22.988Z,7.53
2019-03-23T04:49:53.752Z,7.70
2019-03-23T04:52:24.523Z,7.80
2019-03-23T04:54:55.408Z,6.67
2019-03-23T04:57:26.203Z,5.60
2019-03-23T04:59:57.074Z,7.07
2019-03-23T05:02:28.015Z,7.00
2019-03-23T05:04:58.771Z,6.97
2019-03-23T05:07:30.531Z,8.00
2019-03-23T05:10:01.359Z,7.97
2019-03-23T05:12:32.127Z,8.97
2019-03-23T05:15:03.031Z,7.23
2019-03-23T05:17:33.806Z,7.10
2019-03-23T05:20:05.513Z,7.77
2019-03-23T05:22:36.411Z,8.20
2019-03-23T05:25:08.688Z,8.33
2019-03-23T05:27:41.067Z,9.67
2019-03-23T05:30:12.091Z,7.13
2019-03-23T05:32:42.988Z,8.27
2019-03-23T05:35:13.936Z,7.70
2019-03-23T05:37:44.696Z,7.07
2019-03-23T05:40:17.523Z,8.97
2019-03-23T05:42:48.260Z,10.43
2019-03-23T05:45:19.038Z,6.70
2019-03-23T05:47:49.980Z,6.80
2019-03-23T05:50:20.892Z,7.93
2019-03-23T05:52:51.820Z,7.60
2019-03-23T05:55:22.585Z,7.97
2019-03-23T05:57:53.436Z,7.07
2019-03-23T06:00:25.132Z,6.10
2019-03-23T06:02:55.995Z,6.30
2019-03-23T06:05:26.766Z,8.53
2019-03-23T06:07:58.791Z,9.03
2019-03-23T06:10:29.722Z,7.03
2019-03-23T06:13:00.613Z,6.30
2019-03-23T06:15:32.319Z,6.53
2019-03-23T06:18:03.160Z,7.93
2019-03-23T06:20:33.919Z,6.13
2019-03-23T06:23:04.953Z,9.50
2019-03-23T06:25:35.829Z,8.73
2019-03-23T06:28:06.627Z,7.73
2019-03-23T06:30:37.483Z,6.73
2019-03-23T06:33:09.281Z,7.27
2019-03-23T06:35:40.084Z,7.23
2019-03-23T06:38:10.815Z,8.03
2019-03-23T06:40:41.751Z,7.13
2019-03-23T06:43:12.617Z,7.37
2019-03-23T06:45:43.361Z,5.93
2019-03-23T06:48:14.132Z,6.07
2019-03-23T06:50:45.935Z,6.77
2019-03-23T06:53:16.658Z,7.60
2019-03-23T06:55:47.487Z,7.13
2019-03-23T06:58:18.801Z,8.00
2019-03-23T07:00:49.675Z,10.37
2019-03-23T07:03:21.003Z,6.97
2019-03-23T07:05:51.760Z,6.60
2019-03-23T07:08:31.557Z,7.27
2019-03-23T07:10:55.027Z,7.43
2019-03-23T07:13:25.870Z,7.63
2019-03-23T07:15:56.644Z,6.77
2019-03-23T07:18:27.406Z,6.47
2019-03-23T07:20:58.816Z,8.35
2019-03-23T07:23:30.396Z,6.15
2019-03-23T07:26:01.788Z,7.62
2019-03-23T07:28:33.092Z,6.83
2019-03-23T07:31:04.411Z,6.53
2019-03-23T07:33:35.746Z,6.50
2019-03-23T07:36:07.083Z,7.22
2019-03-23T07:38:39.363Z,6.30
2019-03-23T07:41:10.899Z,5.70
2019-03-23T07:43:42.317Z,8.70
2019-03-23T07:46:13.619Z,5.85
2019-03-23T07:48:45.026Z,8.48
2019-03-23T07:51:16.492Z,8.40
2019-03-23T07:53:47.850Z,5.90
2019-03-23T07:56:19.182Z,7.92
2019-03-23T07:58:50.484Z,7.53
2019-03-23T08:01:21.805Z,7.22
2019-03-23T08:03:53.108Z,7.65
2019-03-23T08:06:24.511Z,9.40
2019-03-23T08:08:55.924Z,8.05
2019-03-23T08:11:27.239Z,6.62
2019-03-23T08:13:58.696Z,8.55
2019-03-23T08:16:30.108Z,7.30
2019-03-23T08:19:01.436Z,7.50
2019-03-23T08:21:32.855Z,9.05
2019-03-23T08:24:04.309Z,8.88
2019-03-23T08:26:35.724Z,10.90
2019-03-23T08:29:07.039Z,9.78
2019-03-23T08:31:38.455Z,7.87
2019-03-23T08:34:09.879Z,10.78
2019-03-23T08:36:41.223Z,11.65
2019-03-23T08:39:12.607Z,11.65
2019-03-23T08:41:43.975Z,11.15
2019-03-23T08:44:15.515Z,10.18
2019-03-23T08:46:46.984Z,8.88
2019-03-23T08:49:18.418Z,9.15
2019-03-23T08:51:52.284Z,9.58
2019-03-23T08:54:23.591Z,8.10
2019-03-23T08:56:55.122Z,9.58
2019-03-23T08:59:26.647Z,9.28
2019-03-23T09:01:57.994Z,15.48
2019-03-23T09:04:29.478Z,15.23
2019-03-23T09:07:00.892Z,12.95
2019-03-23T09:09:32.680Z,17.15
2019-03-23T09:12:09.858Z,16.55
2019-03-23T09:14:44.457Z,12.13
2019-03-23T09:17:16.061Z,11.97
2019-03-23T09:19:47.607Z,13.53
2019-03-23T09:22:19.100Z,13.95
2019-03-23T09:24:50.452Z,14.20
2019-03-23T09:27:22.136Z,13.05
2019-03-23T09:29:53.643Z,11.70
2019-03-23T09:32:25.014Z,14.40
2019-03-23T09:34:56.647Z,11.50
2019-03-23T09:37:28.099Z,9.83
2019-03-23T09:40:10.043Z,12.50
2019-03-23T09:42:32.560Z,11.18
2019-03-23T09:45:04.500Z,14.47
2019-03-23T09:47:36.066Z,16.02
2019-03-23T09:50:07.895Z,16.10
2019-03-23T09:52:40.991Z,25.52
2019-03-23T09:55:15.050Z,23.07
2019-03-23T09:57:46.549Z,24.12
2019-03-23T10:00:17.911Z,21.20
2019-03-23T10:02:49.349Z,21.57
2019-03-23T10:05:20.786Z,21.25
2019-03-23T10:07:52.142Z,19.87
2019-03-23T10:10:23.523Z,24.77
2019-03-23T10:12:54.901Z,24.43
2019-03-23T10:15:26.335Z,21.57
2019-03-23T10:17:57.795Z,17.87
2019-03-23T10:20:29.190Z,22.30
2019-03-23T10:23:00.647Z,19.60
2019-03-23T10:25:32.169Z,18.67
2019-03-23T10:28:03.663Z,19.42
2019-03-23T10:30:35.159Z,18.27
2019-03-23T10:33:06.572Z,18.12
2019-03-23T10:35:38.027Z,19.07
2019-03-23T10:38:09.402Z,19.00
2019-03-23T10:40:42.929Z,20.97
2019-03-23T10:43:14.020Z,21.25
2019-03-23T10:45:45.470Z,18.40
2019-03-23T10:48:17.050Z,18.35
2019-03-23T10:50:48.653Z,21.12
2019-03-23T10:53:23.157Z,19.82
2019-03-23T10:55:53.119Z,21.73
2019-03-23T10:58:24.571Z,20.37
2019-03-23T11:00:56.004Z,18.87
2019-03-23T11:03:27.460Z,22.77
2019-03-23T11:05:58.911Z,27.90
2019-03-23T11:08:30.268Z,21.17
2019-03-23T11:11:01.621Z,20.52
2019-03-23T11:13:33.103Z,20.20
2019-03-23T11:16:04.631Z,18.92
2019-03-23T11:18:37.742Z,17.73
2019-03-23T11:21:09.140Z,17.45
2019-03-23T11:23:40.584Z,20.43
2019-03-23T11:26:12.135Z,21.37
2019-03-23T11:28:43.483Z,21.07
2019-03-23T11:31:14.933Z,18.27
2019-03-23T11:33:46.343Z,31.77
2019-03-23T11:36:18.727Z,29.60
2019-03-23T11:38:50.115Z,19.70
2019-03-23T11:41:21.567Z,17.45
2019-03-23T11:43:52.927Z,22.87
2019-03-23T11:46:24.348Z,24.95
2019-03-23T11:48:55.689Z,19.32
2019-03-23T11:51:27.139Z,20.95
2019-03-23T11:53:58.492Z,18.98
2019-03-23T11:56:30.581Z,16.87
2019-03-23T11:59:02.371Z,18.15
2019-03-23T12:01:33.712Z,17.00
2019-03-23T12:04:06.287Z,19.05
2019-03-23T12:06:37.623Z,19.75
2019-03-23T12:09:09.448Z,20.32
2019-03-23T12:11:40.904Z,19.55
2019-03-23T12:14:12.308Z,16.60
2019-03-23T12:16:43.806Z,17.80
2019-03-23T12:19:15.254Z,17.20
2019-03-23T12:21:46.579Z,14.98
2019-03-23T12:24:17.923Z,14.15
2019-03-23T12:26:49.336Z,16.70
2019-03-23T12:29:20.811Z,15.75
2019-03-23T12:31:52.138Z,16.30
2019-03-23T12:34:23.556Z,16.48
2019-03-23T12:36:55.001Z,15.55
2019-03-23T12:39:26.471Z,18.70
2019-03-23T12:41:57.873Z,15.25
2019-03-23T12:44:29.380Z,27.93
2019-03-23T12:47:00.823Z,29.15
2019-03-23T12:49:32.170Z,22.02
2019-03-23T12:52:03.566Z,14.63
2019-03-23T12:54:34.891Z,15.58
2019-03-23T12:57:06.399Z,15.32
2019-03-23T12:59:38.071Z,16.17
2019-03-23T13:02:09.515Z,19.27
2019-03-23T13:04:40.919Z,18.23
2019-03-23T13:07:12.414Z,16.45
2019-03-23T13:09:43.840Z,19.45
2019-03-23T13:12:15.193Z,16.82
2019-03-23T13:14:46.631Z,16.07
2019-03-23T13:17:18.096Z,14.05
2019-03-23T13:19:49.479Z,17.42
2019-03-23T13:22:20.807Z,13.30
2019-03-23T13:24:52.178Z,15.23
2019-03-23T13:27:23.602Z,12.43
2019-03-23T13:29:55.038Z,14.80
2019-03-23T13:32:26.503Z,16.70
2019-03-23T13:34:57.910Z,15.95
2019-03-23T13:37:29.235Z,14.83
2019-03-23T13:40:00.354Z,15.43
2019-03-23T13:42:31.816Z,13.90
2019-03-23T13:45:03.835Z,12.80
2019-03-23T13:47:35.220Z,13.22
2019-03-23T13:50:07.440Z,13.90
2019-03-23T13:52:38.918Z,16.15
2019-03-23T13:55:25.784Z,21.25
2019-03-23T13:58:03.143Z,22.77
2019-03-23T14:00:34.487Z,19.37
2019-03-23T14:03:06.031Z,16.15
2019-03-23T14:05:37.276Z,16.07
2019-03-23T14:08:08.690Z,15.25
2019-03-23T14:10:40.220Z,18.27
2019-03-23T14:13:11.587Z,18.23
2019-03-23T14:15:42.958Z,18.25
2019-03-23T14:18:17.383Z,25.10
2019-03-23T14:20:48.562Z,18.42
2019-03-23T14:23:19.976Z,18.00
2019-03-23T14:25:51.319Z,19.37
2019-03-23T14:28:22.732Z,18.73
2019-03-23T14:30:55.191Z,17.27
2019-03-23T14:33:26.546Z,18.73
2019-03-23T14:35:57.899Z,16.50
2019-03-23T14:38:29.333Z,17.98
2019-03-23T14:41:00.679Z,16.52
2019-03-23T14:43:32.048Z,18.02
2019-03-23T14:46:03.398Z,17.40
2019-03-23T14:48:34.855Z,16.90
2019-03-23T14:51:06.376Z,17.27
2019-03-23T14:53:37.740Z,16.67
2019-03-23T14:56:08.955Z,15.80
2019-03-23T14:58:40.363Z,18.60
2019-03-23T15:01:11.722Z,20.27
2019-03-23T15:03:43.155Z,18.87
2019-03-23T15:06:14.268Z,19.17
2019-03-23T15:08:45.715Z,16.60
2019-03-23T15:11:17.759Z,16.67
2019-03-23T15:13:48.787Z,16.67
2019-03-23T15:16:19.916Z,13.53
2019-03-23T15:18:51.251Z,18.75
2019-03-23T15:21:22.447Z,40.30
2019-03-23T15:23:53.575Z,29.90
2019-03-23T15:26:24.795Z,24.37
2019-03-23T15:28:56.219Z,19.60
2019-03-23T15:31:27.716Z,16.95
2019-03-23T15:33:58.811Z,17.77
2019-03-23T15:36:30.846Z,18.60
2019-03-23T15:39:02.216Z,18.87
2019-03-23T15:41:33.633Z,21.90
2019-03-23T15:44:05.408Z,25.88
2019-03-23T15:46:36.743Z,24.92
2019-03-23T15:49:08.084Z,20.02
2019-03-23T15:51:39.447Z,21.23
2019-03-23T15:54:11.103Z,22.73
2019-03-23T15:56:42.579Z,23.62
2019-03-23T15:59:13.997Z,18.98
2019-03-23T16:01:45.455Z,18.90
2019-03-23T16:04:16.790Z,25.40
2019-03-23T16:06:48.199Z,21.55
2019-03-23T16:09:20.588Z,20.88
2019-03-23T16:11:53.323Z,20.75
2019-03-23T16:14:24.643Z,30.43
2019-03-23T16:16:55.971Z,32.80
2019-03-23T16:19:27.364Z,23.52
2019-03-23T16:21:58.463Z,27.83
2019-03-23T16:24:30.140Z,56.68
2019-03-23T16:27:01.710Z,26.73
2019-03-23T16:29:33.135Z,23.35
2019-03-23T16:32:04.549Z,25.10
2019-03-23T16:34:36.152Z,20.70
2019-03-23T16:37:07.523Z,25.05
2019-03-23T16:39:38.963Z,18.87
2019-03-23T16:42:10.431Z,20.48
2019-03-23T16:44:41.792Z,19.57
2019-03-23T16:47:13.135Z,20.62
2019-03-23T16:49:44.782Z,16.05
2019-03-23T16:52:16.435Z,16.48
2019-03-23T16:54:47.769Z,16.00
2019-03-23T16:57:19.103Z,16.37
2019-03-23T16:59:50.624Z,17.95
2019-03-23T17:02:21.955Z,17.05
2019-03-23T17:04:53.323Z,15.65
2019-03-23T17:07:24.635Z,14.05
2019-03-23T17:09:55.951Z,13.53
2019-03-23T17:12:27.347Z,12.53
2019-03-23T17:14:58.679Z,13.13
2019-03-23T17:17:30.027Z,13.35
2019-03-23T17:20:02.496Z,33.95
2019-03-23T17:22:34.954Z,20.35
2019-03-23T17:25:06.654Z,18.73
2019-03-23T17:27:38.035Z,22.85
2019-03-23T17:30:11.267Z,17.67
2019-03-23T17:32:42.619Z,18.67
2019-03-23T17:35:14.082Z,17.37
2019-03-23T17:37:45.724Z,23.70
2019-03-23T17:40:17.063Z,21.97
2019-03-23T17:42:48.563Z,21.02
2019-03-23T17:45:28.359Z,23.83
2019-03-23T17:47:59.720Z,18.00
2019-03-23T17:50:31.083Z,20.50
2019-03-23T17:53:02.504Z,22.95
2019-03-23T17:55:33.884Z,24.50
2019-03-23T17:58:05.485Z,23.50
2019-03-23T18:00:36.883Z,24.75
2019-03-23T18:03:08.430Z,21.45
2019-03-23T18:05:40.377Z,26.02
2019-03-23T18:08:11.799Z,26.37
2019-03-23T18:10:43.394Z,28.47
2019-03-23T18:13:16.662Z,25.30
2019-03-23T18:15:47.851Z,22.07
2019-03-23T18:18:19.284Z,18.00
2019-03-23T18:20:50.697Z,19.05
2019-03-23T18:23:22.041Z,20.45
2019-03-23T18:25:53.375Z,21.62
2019-03-23T18:28:24.736Z,23.38
2019-03-23T18:30:56.081Z,22.25
2019-03-23T18:33:27.456Z,22.37
2019-03-23T18:35:59.015Z,23.02
2019-03-23T18:38:30.370Z,22.00
2019-03-23T18:41:01.727Z,23.35
2019-03-23T18:43:33.171Z,27.10
2019-03-23T18:46:04.723Z,25.48
2019-03-23T18:48:36.063Z,25.40
2019-03-23T18:51:07.600Z,27.37
2019-03-23T18:53:39.158Z,28.25
2019-03-23T18:56:10.598Z,28.52
2019-03-23T18:58:41.971Z,29.23
2019-03-23T19:01:13.311Z,33.75
2019-03-23T19:03:45.123Z,35.10
2019-03-23T19:06:16.471Z,33.08
2019-03-23T19:08:47.896Z,28.45
2019-03-23T19:11:19.328Z,29.57
2019-03-23T19:13:50.711Z,29.27
2019-03-23T19:16:22.064Z,30.72
2019-03-23T19:18:53.911Z,26.40
2019-03-23T19:21:25.276Z,28.07
2019-03-23T19:23:56.885Z,25.37
2019-03-23T19:26:28.434Z,23.55
2019-03-23T19:28:59.795Z,23.38
2019-03-23T19:31:31.182Z,34.75
2019-03-23T19:34:02.638Z,27.58
2019-03-23T19:36:33.987Z,25.77
2019-03-23T19:39:08.504Z,25.90
2019-03-23T19:41:39.958Z,23.40
2019-03-23T19:44:11.484Z,26.10
2019-03-23T19:46:42.871Z,40.70
2019-03-23T19:49:14.392Z,30.15
2019-03-23T19:51:45.867Z,30.15
2019-03-23T19:54:17.323Z,24.00
2019-03-23T19:56:48.657Z,18.35
2019-03-23T19:59:20.047Z,21.37
2019-03-23T20:01:51.460Z,19.90
2019-03-23T20:04:22.795Z,19.48
2019-03-23T20:06:54.190Z,22.00
2019-03-23T20:09:25.677Z,19.95
2019-03-23T20:11:57.054Z,19.95
2019-03-23T20:14:28.599Z,20.25
2019-03-23T20:16:59.947Z,21.10
2019-03-23T20:19:31.475Z,21.93
2019-03-23T20:22:02.803Z,24.50
2019-03-23T20:24:34.163Z,25.55
2019-03-23T20:27:05.720Z,27.52
2019-03-23T20:29:37.075Z,24.37
2019-03-23T20:32:08.523Z,24.57
2019-03-23T20:34:39.957Z,28.27
2019-03-23T20:37:11.281Z,24.92
2019-03-23T20:39:42.703Z,23.60
2019-03-23T20:42:15.075Z,29.95
2019-03-23T20:44:46.395Z,25.82
2019-03-23T20:47:17.887Z,28.27
2019-03-23T20:49:49.523Z,26.87
2019-03-23T20:52:21.033Z,28.15
2019-03-23T20:54:52.452Z,26.68
2019-03-23T20:57:24.448Z,26.95
2019-03-23T20:59:55.825Z,27.00
2019-03-23T21:02:27.355Z,26.97
2019-03-23T21:04:58.767Z,28.02
2019-03-23T21:07:30.200Z,24.25
2019-03-23T21:10:01.597Z,25.68
2019-03-23T21:12:33.080Z,28.27
2019-03-23T21:15:05.090Z,24.77
2019-03-23T21:17:36.579Z,27.17
2019-03-23T21:20:08.206Z,26.80
2019-03-23T21:22:39.579Z,25.00
2019-03-23T21:25:13.451Z,23.77
2019-03-23T21:27:44.766Z,24.23
2019-03-23T21:30:22.997Z,24.90
2019-03-23T21:32:55.979Z,27.85
2019-03-23T21:35:27.319Z,22.95
2019-03-23T21:37:58.704Z,23.73
2019-03-23T21:40:30.203Z,22.87
2019-03-23T21:43:01.535Z,23.52
2019-03-23T21:45:33.054Z,23.10
2019-03-23T21:48:05.084Z,23.50
2019-03-23T21:50:46.822Z,22.77
2019-03-23T21:53:09.603Z,22.02
2019-03-23T21:55:40.967Z,24.07
2019-03-23T21:58:13.428Z,22.60
2019-03-23T22:00:44.811Z,24.25
2019-03-23T22:03:16.157Z,25.95
2019-03-23T22:06:01.591Z,26.27
2019-03-23T22:08:32.660Z,25.45
2019-03-23T22:11:04.131Z,24.40
2019-03-23T22:13:35.475Z,22.48
2019-03-23T22:16:06.819Z,24.10
2019-03-23T22:18:38.171Z,24.07
2019-03-23T22:21:09.611Z,22.00
2019-03-23T22:23:41.060Z,22.25
2019-03-23T22:26:12.444Z,24.70
2019-03-23T22:28:43.823Z,24.85
2019-03-23T22:31:15.598Z,26.33
2019-03-23T22:33:46.983Z,27.10
2019-03-23T22:36:18.376Z,23.98
2019-03-23T22:38:49.836Z,22.58
2019-03-23T22:41:21.239Z,27.27
2019-03-23T22:43:52.615Z,26.52
2019-03-23T22:46:23.972Z,23.77
2019-03-23T22:48:55.378Z,26.05
2019-03-23T22:51:26.829Z,27.67
2019-03-23T22:53:58.179Z,25.75
2019-03-23T22:56:29.641Z,37.28
2019-03-23T22:59:00.977Z,26.93
2019-03-23T23:01:32.500Z,25.75
2019-03-23T23:04:03.979Z,25.88
2019-03-23T23:06:35.460Z,25.90
2019-03-23T23:09:09.581Z,27.32
2019-03-23T23:11:40.919Z,28.80
2019-03-23T23:14:13.864Z,27.13
2019-03-23T23:16:45.214Z,25.43
2019-03-23T23:19:16.607Z,27.77
2019-03-23T23:21:47.992Z,22.90
2019-03-23T23:24:19.368Z,29.60
2019-03-23T23:26:50.954Z,23.67
2019-03-23T23:29:22.403Z,29.02
2019-03-23T23:31:53.807Z,26.55
2019-03-23T23:34:25.327Z,25.08
2019-03-23T23:36:57.036Z,22.95
2019-03-23T23:39:29.540Z,26.80
2019-03-23T23:42:00.868Z,27.42
2019-03-23T23:44:32.447Z,24.85
2019-03-23T23:47:03.780Z,28.55
2019-03-23T23:49:36.232Z,29.27
2019-03-23T23:52:07.691Z,30.50
2019-03-23T23:54:39.093Z,27.67
2019-03-23T23:57:10.511Z,28.80
2019-03-23T23:59:41.923Z,25.25
